Time;durP1;ratioP1;P1;durP2;ratioP2;P2;SDS_P1;SDS_P2;PMS_P1;PMS_P2;Temp;Humidity;BMP_temperature;BMP_pressure;BME280_temperature;BME280_humidity;BME280_pressure;Samples;Min_cycle;Max_cycle;Signal;HPM_P1;HPM_P2
2022/09/03 00:00:40;;;;;;;;;;;;;;;21.91;29.75;97562.94;4968473;28;1500;-79
2022/09/03 00:03:06;;;;;;;;;;;;;;;21.99;29.53;97567.13;4979301;28;1768;-79
2022/09/03 00:05:33;;;;;;;;;;;;;;;22.03;29.73;97570.63;4994789;28;956;-79
2022/09/03 00:08:21;;;;;;;;;;;;;;;21.82;30.07;97555.97;4994649;28;858;-80
2022/09/03 00:10:56;;;;;;;;;;;;;;;22.02;29.37;97550.03;4994987;28;1004;-79
2022/09/03 00:13:35;;;;;;;;;;;;;;;21.89;29.48;97545.63;4994855;28;1981;-80
2022/09/03 00:16:02;;;;;;;;;;;;;;;21.84;29.62;97544.19;4994115;28;1351;-79
2022/09/03 00:18:29;;;;;;;;;;;;;;;21.93;29.49;97554.81;5019313;28;923;-79
2022/09/03 00:20:57;;;;;;;;;;;;;;;21.90;29.71;97545.16;5038763;28;858;-79
2022/09/03 00:23:26;;;;;;;;;;;;;;;21.96;29.56;97542.53;5022472;28;869;-79
2022/09/03 00:25:57;;;;;;;;;;;;;;;22.06;29.45;97544.22;5056496;28;899;-79
2022/09/03 00:28:26;;;;;;;;;;;;;;;21.79;30.00;97551.22;5056228;28;849;-80
2022/09/03 00:30:55;;;;;;;;;;;;;;;21.94;29.80;97545.06;5062381;28;1300;-79
2022/09/03 00:33:22;;;;;;;;;;;;;;;21.91;29.61;97545.97;5058715;28;1913;-79
2022/09/03 00:35:54;;;;;;;;;;;;;;;21.83;29.79;97539.75;5058571;28;960;-79
2022/09/03 00:38:21;;;;;;;;;;;;;;;22.09;30.22;97546.13;5058509;28;945;-79
2022/09/03 00:41:06;;;;;;;;;;;;;;;22.46;30.56;97546.44;5047138;28;1424;-79
2022/09/03 00:43:35;;;;;;;;;;;;;;;22.68;31.05;97535.88;5071857;28;1352;-80
2022/09/03 00:46:04;;;;;;;;;;;;;;;22.40;31.25;97551.91;5075990;28;930;-79
2022/09/03 00:48:30;;;;;;;;;;;;;;;22.27;31.52;97560.47;5076578;28;895;-79
2022/09/03 00:51:15;;;;;;;;;;;;;;;22.22;31.07;97561.06;5076102;28;840;-79
2022/09/03 00:53:43;;;;;;;;;;;;;;;22.06;31.24;97564.03;5075828;28;1917;-79
2022/09/03 00:56:28;;;;;;;;;;;;;;;22.14;30.79;97571.06;5061984;28;1423;-79
2022/09/03 00:58:56;;;;;;;;;;;;;;;22.02;31.14;97571.88;5056169;28;905;-79
2022/09/03 01:01:54;;;;;;;;;;;;;;;22.14;30.54;97582.41;5032512;28;1362;-79
2022/09/03 01:04:20;;;;;;;;;;;;;;;21.99;30.85;97581.28;4955662;29;1083;-79
2022/09/03 01:06:48;;;;;;;;;;;;;;;21.99;31.03;97589.78;4955651;29;943;-79
2022/09/03 01:09:14;;;;;;;;;;;;;;;21.96;30.76;97599.19;4955727;29;1039;-79
2022/09/03 01:11:55;;;;;;;;;;;;;;;22.08;30.32;97595.56;4955582;29;997;-79
2022/09/03 01:14:21;;;;;;;;;;;;;;;22.14;30.49;97602.25;4959130;28;1504;-79
2022/09/03 01:16:52;;;;;;;;;;;;;;;22.05;30.22;97602.13;4973491;28;1394;-79
2022/09/03 01:19:17;;;;;;;;;;;;;;;22.05;30.21;97602.13;4978149;28;1055;-79
2022/09/03 01:21:45;;;;;;;;;;;;;;;21.90;30.56;97603.88;4978461;28;1151;-79
2022/09/03 01:24:11;;;;;;;;;;;;;;;22.00;30.08;97594.22;4978943;28;969;-79
2022/09/03 01:26:53;;;;;;;;;;;;;;;21.91;30.51;97596.94;4962356;28;954;-80
2022/09/03 01:29:39;;;;;;;;;;;;;;;21.83;30.27;97594.38;4961507;28;1320;-79
2022/09/03 01:32:07;;;;;;;;;;;;;;;21.94;30.22;97596.03;4977854;28;1979;-79
2022/09/03 01:34:38;;;;;;;;;;;;;;;21.88;30.31;97592.22;4978448;28;1020;-80
2022/09/03 01:37:10;;;;;;;;;;;;;;;21.86;30.26;97598.31;4978581;28;938;-79
2022/09/03 01:39:45;;;;;;;;;;;;;;;21.91;30.04;97592.06;4991844;28;1333;-79
2022/09/03 01:42:14;;;;;;;;;;;;;;;21.71;30.50;97600.03;5059041;28;872;-79
2022/09/03 01:44:47;;;;;;;;;;;;;;;21.92;29.88;97587.22;5059000;28;957;-80
2022/09/03 01:47:32;;;;;;;;;;;;;;;21.89;30.25;97585.28;5058935;28;910;-79
2022/09/03 01:50:06;;;;;;;;;;;;;;;21.96;29.94;97590.69;5059159;28;951;-79
2022/09/03 01:52:52;;;;;;;;;;;;;;;21.83;30.28;97580.19;5058719;28;1898;-80
2022/09/03 01:55:27;;;;;;;;;;;;;;;21.87;30.18;97582.13;5031674;28;1587;-79
2022/09/03 01:57:55;;;;;;;;;;;;;;;21.92;30.05;97587.22;5061595;28;869;-79
2022/09/03 02:00:20;;;;;;;;;;;;;;;21.90;30.23;97579.16;5060398;28;1521;-79
2022/09/03 02:02:50;;;;;;;;;;;;;;;21.98;30.12;97574.06;5078976;28;799;-79
2022/09/03 02:05:19;;;;;;;;;;;;;;;22.04;30.02;97567.34;5042898;28;1351;-79
2022/09/03 02:07:51;;;;;;;;;;;;;;;21.85;30.54;97576.91;5041179;28;1014;-79
2022/09/03 02:10:18;;;;;;;;;;;;;;;21.81;30.58;97571.38;5041414;28;945;-79
2022/09/03 02:12:48;;;;;;;;;;;;;;;22.01;30.45;97573.13;5058853;28;1975;-79
2022/09/03 02:15:15;;;;;;;;;;;;;;;22.35;31.32;97581.63;5040797;28;947;-79
2022/09/03 02:17:41;;;;;;;;;;;;;;;22.58;31.98;97577.53;5040684;28;1050;-79
2022/09/03 02:20:09;;;;;;;;;;;;;;;22.59;32.90;97581.19;5075774;28;1438;-79
2022/09/03 02:22:35;;;;;;;;;;;;;;;22.50;32.43;97578.28;5061173;28;943;-79
2022/09/03 02:25:00;;;;;;;;;;;;;;;22.35;32.39;97570.31;5077547;28;1419;-79
2022/09/03 02:27:26;;;;;;;;;;;;;;;22.24;32.38;97569.91;5077528;28;1321;-79
2022/09/03 02:29:51;;;;;;;;;;;;;;;22.06;32.46;97572.53;5059747;28;802;-79
2022/09/03 02:32:17;;;;;;;;;;;;;;;22.07;32.16;97571.28;5078228;28;1979;-79
2022/09/03 02:34:42;;;;;;;;;;;;;;;22.07;31.97;97582.63;5078085;28;890;-79
2022/09/03 02:37:14;;;;;;;;;;;;;;;21.89;32.22;97583.25;5060220;28;825;-79
2022/09/03 02:39:40;;;;;;;;;;;;;;;22.05;31.77;97600.09;5077612;28;1355;-79
2022/09/03 02:42:06;;;;;;;;;;;;;;;22.14;31.74;97615.63;5075706;28;1386;-80
2022/09/03 02:44:32;;;;;;;;;;;;;;;22.30;31.54;97624.75;5078600;28;780;-79
2022/09/03 02:47:02;;;;;;;;;;;;;;;21.98;31.91;97608.03;5060654;28;969;-79
2022/09/03 02:49:27;;;;;;;;;;;;;;;22.01;31.81;97601.44;5060334;28;897;-79
2022/09/03 02:51:56;;;;;;;;;;;;;;;21.88;31.79;97606.38;5060260;28;1101;-80
2022/09/03 02:54:22;;;;;;;;;;;;;;;21.79;31.71;97610.69;5055783;28;947;-79
2022/09/03 02:56:48;;;;;;;;;;;;;;;21.90;31.39;97606.69;5027345;28;1576;-79
2022/09/03 02:59:14;;;;;;;;;;;;;;;21.94;31.54;97607.38;5032632;28;1561;-80
2022/09/03 03:01:39;;;;;;;;;;;;;;;21.87;31.28;97607.63;5052034;28;1237;-79
2022/09/03 03:04:05;;;;;;;;;;;;;;;21.73;31.51;97609.69;5035474;28;983;-80
2022/09/03 03:06:30;;;;;;;;;;;;;;;21.90;31.00;97612.34;5051891;28;1652;-80
2022/09/03 03:08:56;;;;;;;;;;;;;;;21.68;31.45;97606.63;5035639;28;982;-79
2022/09/03 03:11:26;;;;;;;;;;;;;;;21.77;31.16;97599.03;5035182;28;1021;-79
2022/09/03 03:13:51;;;;;;;;;;;;;;;21.85;31.18;97596.72;5035147;28;1930;-79
2022/09/03 03:16:17;;;;;;;;;;;;;;;21.81;30.72;97588.38;5035396;28;934;-79
2022/09/03 03:18:45;;;;;;;;;;;;;;;21.88;30.64;97581.66;5018519;28;892;-79
2022/09/03 03:21:11;;;;;;;;;;;;;;;21.85;30.43;97577.69;5034144;28;1430;-80
2022/09/03 03:23:37;;;;;;;;;;;;;;;21.69;30.92;97558.03;5052046;28;1141;-79
2022/09/03 03:26:06;;;;;;;;;;;;;;;21.92;30.65;97547.56;5068749;28;1234;-79
2022/09/03 03:28:33;;;;;;;;;;;;;;;21.84;30.61;97547.78;5057056;28;915;-80
2022/09/03 03:31:04;;;;;;;;;;;;;;;22.31;31.71;97552.63;5057127;28;1312;-80
2022/09/03 03:33:29;;;;;;;;;;;;;;;22.55;32.11;97566.34;5039152;28;1980;-79
2022/09/03 03:35:55;;;;;;;;;;;;;;;22.80;32.13;97566.22;5056926;28;907;-79
2022/09/03 03:38:20;;;;;;;;;;;;;;;22.32;32.80;97571.22;5056907;28;910;-80
2022/09/03 03:40:46;;;;;;;;;;;;;;;22.21;32.21;97576.47;5056971;28;1023;-79
2022/09/03 03:43:11;;;;;;;;;;;;;;;22.16;32.13;97568.56;5039020;28;806;-79
2022/09/03 03:45:37;;;;;;;;;;;;;;;22.04;31.84;97577.88;5065445;28;1804;-79
2022/09/03 03:48:02;;;;;;;;;;;;;;;22.03;31.55;97573.47;5059010;28;853;-79
2022/09/03 03:50:28;;;;;;;;;;;;;;;22.15;31.43;97578.31;5077160;28;863;-80
2022/09/03 03:52:53;;;;;;;;;;;;;;;22.06;31.33;97576.16;5076298;28;1910;-80
2022/09/03 03:55:18;;;;;;;;;;;;;;;21.95;31.36;97580.63;5076641;28;1499;-80
2022/09/03 03:57:44;;;;;;;;;;;;;;;21.92;31.62;97588.00;5057782;28;958;-80
2022/09/03 04:00:11;;;;;;;;;;;;;;;21.90;31.49;97578.38;5076875;28;1253;-80
2022/09/03 04:02:42;;;;;;;;;;;;;;;21.79;31.49;97590.84;5076374;28;885;-80
2022/09/03 04:05:08;;;;;;;;;;;;;;;21.83;31.26;97591.53;5058531;28;1033;-80
2022/09/03 04:07:33;;;;;;;;;;;;;;;21.85;30.99;97594.69;5076389;28;849;-80
2022/09/03 04:09:59;;;;;;;;;;;;;;;21.78;31.16;97594.94;5076560;28;999;-79
2022/09/03 04:12:25;;;;;;;;;;;;;;;21.97;31.00;97606.47;5076194;28;1910;-80
2022/09/03 04:14:51;;;;;;;;;;;;;;;21.75;31.19;97612.03;5076135;28;979;-79
2022/09/03 04:17:16;;;;;;;;;;;;;;;21.88;30.89;97609.22;5076559;28;895;-80
2022/09/03 04:19:42;;;;;;;;;;;;;;;21.88;30.90;97626.19;5058297;28;893;-80
2022/09/03 04:22:07;;;;;;;;;;;;;;;21.77;30.71;97633.00;5076325;28;886;-80
2022/09/03 04:24:33;;;;;;;;;;;;;;;21.70;30.98;97638.88;5074229;28;922;-80
2022/09/03 04:27:00;;;;;;;;;;;;;;;21.89;30.65;97639.09;5076082;28;861;-80
2022/09/03 04:29:25;;;;;;;;;;;;;;;21.66;31.00;97641.06;5076117;28;915;-80
2022/09/03 04:34:35;;;;;;;;;;;;;;;21.78;30.66;97648.75;5076043;28;876;-80
2022/09/03 04:37:00;;;;;;;;;;;;;;;21.93;30.56;97649.06;5058348;28;1308;-80
2022/09/03 04:39:25;;;;;;;;;;;;;;;22.50;31.14;97649.16;5076091;28;1086;-79
2022/09/03 04:41:51;;;;;;;;;;;;;;;22.51;31.35;97650.75;5075785;28;856;-80
2022/09/03 04:44:16;;;;;;;;;;;;;;;22.60;32.04;97653.66;5058459;28;1210;-80
2022/09/03 04:46:42;;;;;;;;;;;;;;;22.25;31.92;97647.22;5076181;28;831;-79
2022/09/03 04:49:08;;;;;;;;;;;;;;;22.20;31.59;97645.75;5076303;28;862;-79
2022/09/03 04:51:35;;;;;;;;;;;;;;;21.87;31.89;97642.41;5041456;28;895;-78
2022/09/03 04:54:00;;;;;;;;;;;;;;;21.95;31.71;97642.94;5079505;28;1906;-79
2022/09/03 04:56:27;;;;;;;;;;;;;;;22.04;31.18;97634.53;5046059;28;918;-78
2022/09/03 04:58:56;;;;;;;;;;;;;;;21.83;31.74;97642.50;5057493;28;943;-79
2022/09/03 05:01:22;;;;;;;;;;;;;;;21.98;31.01;97648.50;5024074;28;1069;-79
2022/09/03 05:03:47;;;;;;;;;;;;;;;21.88;31.27;97654.53;5057163;28;910;-79
2022/09/03 05:06:15;;;;;;;;;;;;;;;21.99;31.07;97655.75;5040995;28;938;-79
2022/09/03 05:08:42;;;;;;;;;;;;;;;21.76;31.21;97654.09;5024748;28;1583;-79
2022/09/03 05:11:08;;;;;;;;;;;;;;;21.91;30.96;97664.91;5057749;28;849;-79
2022/09/03 05:13:33;;;;;;;;;;;;;;;21.79;31.27;97658.81;5041072;28;1914;-79
2022/09/03 05:16:00;;;;;;;;;;;;;;;21.70;31.04;97661.53;5040693;28;923;-79
2022/09/03 05:18:25;;;;;;;;;;;;;;;21.89;30.97;97662.56;5040834;28;1128;-80
2022/09/03 05:21:17;;;;;;;;;;;;;;;21.76;31.00;97670.25;5057263;28;875;-79
2022/09/03 05:23:43;;;;;;;;;;;;;;;22.53;31.04;97670.91;4998077;28;1062;-79
2022/09/03 05:26:09;;;;;;;;;;;;;;;22.52;31.62;97675.00;4997728;28;1032;-79
2022/09/03 05:28:36;;;;;;;;;;;;;;;22.79;31.75;97669.56;4981531;28;1006;-79
2022/09/03 05:31:05;;;;;;;;;;;;;;;22.45;31.59;97675.28;4982140;28;878;-79
2022/09/03 05:33:37;;;;;;;;;;;;;;;22.28;31.45;97672.59;4997745;28;1910;-79
2022/09/03 05:36:03;;;;;;;;;;;;;;;22.00;31.65;97682.03;4997573;28;971;-79
2022/09/03 05:38:29;;;;;;;;;;;;;;;22.06;31.13;97678.16;4997830;28;894;-79
2022/09/03 05:40:58;;;;;;;;;;;;;;;21.88;31.63;97677.19;4997179;28;1005;-79
2022/09/03 05:43:24;;;;;;;;;;;;;;;21.73;31.56;97685.34;4997556;28;815;-79
2022/09/03 05:45:49;;;;;;;;;;;;;;;22.02;31.01;97682.34;4981261;28;1229;-79
2022/09/03 05:48:15;;;;;;;;;;;;;;;21.93;31.28;97679.44;4997377;28;899;-79
2022/09/03 05:50:40;;;;;;;;;;;;;;;22.03;31.07;97683.97;4997471;28;1010;-79
2022/09/03 05:53:06;;;;;;;;;;;;;;;21.73;31.32;97688.97;4997509;28;1910;-79
2022/09/03 05:55:31;;;;;;;;;;;;;;;21.96;31.23;97678.50;4980841;28;1103;-79
2022/09/03 05:57:57;;;;;;;;;;;;;;;21.97;31.02;97680.13;4997286;28;961;-80
2022/09/03 06:00:22;;;;;;;;;;;;;;;21.92;30.87;97683.53;5033764;28;1138;-79
2022/09/03 06:02:51;;;;;;;;;;;;;;;22.05;32.69;97692.78;5078547;28;959;-79
2022/09/03 06:05:17;;;;;;;;;;;;;;;22.74;33.41;97698.53;5059869;28;1003;-79
2022/09/03 06:07:43;;;;;;;;;;;;;;;22.61;33.42;97689.28;5078756;28;920;-79
2022/09/03 06:10:09;;;;;;;;;;;;;;;22.33;33.23;97703.19;5078807;28;982;-79
2022/09/03 06:12:35;;;;;;;;;;;;;;;22.21;33.02;97706.84;5078617;28;1914;-79
2022/09/03 06:15:01;;;;;;;;;;;;;;;22.25;32.43;97707.50;5078671;28;892;-79
2022/09/03 06:17:26;;;;;;;;;;;;;;;22.07;32.64;97702.44;5078705;28;797;-79
2022/09/03 06:19:52;;;;;;;;;;;;;;;22.04;32.59;97708.22;5078423;28;854;-79
2022/09/03 06:22:17;;;;;;;;;;;;;;;22.16;32.24;97715.91;5078600;28;1034;-79
2022/09/03 06:24:43;;;;;;;;;;;;;;;22.01;32.27;97711.94;5078331;28;989;-80
2022/09/03 06:27:08;;;;;;;;;;;;;;;22.04;32.45;97702.53;5043755;28;934;-80
2022/09/03 06:29:34;;;;;;;;;;;;;;;21.83;32.71;97704.81;5078073;28;922;-79
2022/09/03 06:32:02;;;;;;;;;;;;;;;21.91;32.41;97713.06;5078411;28;821;-79
2022/09/03 06:34:28;;;;;;;;;;;;;;;22.12;31.84;97715.25;5060630;28;1018;-79
2022/09/03 06:36:53;;;;;;;;;;;;;;;21.97;31.95;97712.06;5060354;28;981;-79
2022/09/03 06:39:18;;;;;;;;;;;;;;;21.93;31.98;97708.56;5077919;28;921;-79
2022/09/03 06:41:44;;;;;;;;;;;;;;;21.82;32.01;97719.44;5078326;28;854;-80
2022/09/03 06:44:11;;;;;;;;;;;;;;;21.88;31.86;97714.00;5077825;28;820;-80
2022/09/03 06:46:37;;;;;;;;;;;;;;;21.94;31.36;97717.84;5060425;28;892;-79
2022/09/03 06:49:03;;;;;;;;;;;;;;;21.89;31.74;97715.59;5077867;28;1132;-80
2022/09/03 06:51:29;;;;;;;;;;;;;;;22.04;31.20;97719.53;5059905;28;943;-79
2022/09/03 06:53:58;;;;;;;;;;;;;;;21.82;31.27;97720.25;5060390;28;1914;-80
2022/09/03 06:56:26;;;;;;;;;;;;;;;22.03;31.11;97732.13;5077551;28;922;-80
2022/09/03 06:58:52;;;;;;;;;;;;;;;21.88;31.31;97733.84;5077486;28;1033;-79
2022/09/03 07:01:18;;;;;;;;;;;;;;;21.69;31.47;97733.59;5059660;28;1291;-79
2022/09/03 07:03:44;;;;;;;;;;;;;;;21.93;30.92;97736.88;5077829;28;809;-80
2022/09/03 07:06:14;;;;;;;;;;;;;;;21.84;30.99;97740.38;5043091;28;838;-78
2022/09/03 07:08:40;;;;;;;;;;;;;;;21.74;31.08;97747.19;5077706;28;925;-79
2022/09/03 07:11:09;;;;;;;;;;;;;;;22.24;31.86;97745.63;5077531;28;883;-79
2022/09/03 07:13:40;;;;;;;;;;;;;;;22.50;32.07;97751.25;5077267;28;1975;-79
2022/09/03 07:16:13;;;;;;;;;;;;;;;22.65;32.34;97746.66;5076975;28;948;-79
2022/09/03 07:18:38;;;;;;;;;;;;;;;22.47;32.29;97752.16;5059706;28;891;-80
2022/09/03 07:21:05;;;;;;;;;;;;;;;22.09;32.53;97745.25;5077269;28;860;-79
2022/09/03 07:23:30;;;;;;;;;;;;;;;22.07;32.11;97752.59;5058244;28;905;-79
2022/09/03 07:25:56;;;;;;;;;;;;;;;22.04;31.92;97760.00;5059266;28;989;-79
2022/09/03 07:28:23;;;;;;;;;;;;;;;22.05;31.81;97763.63;5077075;28;946;-79
2022/09/03 07:30:49;;;;;;;;;;;;;;;22.10;31.96;97768.72;5058560;28;937;-79
2022/09/03 07:33:14;;;;;;;;;;;;;;;22.01;31.79;97768.59;5058369;28;1902;-79
2022/09/03 07:35:40;;;;;;;;;;;;;;;22.06;31.98;97763.16;5077106;28;934;-79
2022/09/03 07:38:05;;;;;;;;;;;;;;;22.03;31.68;97780.28;5077365;28;987;-80
2022/09/03 07:40:32;;;;;;;;;;;;;;;21.94;32.03;97783.00;5076703;28;910;-79
2022/09/03 07:43:00;;;;;;;;;;;;;;;21.88;32.00;97779.16;5077088;28;886;-80
2022/09/03 07:45:28;;;;;;;;;;;;;;;21.91;31.56;97778.22;5076807;28;920;-79
2022/09/03 07:47:53;;;;;;;;;;;;;;;21.75;31.96;97777.09;5076514;28;1060;-79
2022/09/03 07:50:19;;;;;;;;;;;;;;;22.26;32.60;97771.44;5076810;28;916;-79
2022/09/03 07:52:46;;;;;;;;;;;;;;;22.62;32.52;97781.59;5058679;28;1910;-80
2022/09/03 07:55:12;;;;;;;;;;;;;;;22.80;32.96;97784.63;5076827;28;839;-79
2022/09/03 07:57:38;;;;;;;;;;;;;;;22.68;32.22;97774.09;5059203;28;913;-80
2022/09/03 08:00:05;;;;;;;;;;;;;;;22.26;32.86;97774.28;5076741;28;1171;-79
2022/09/03 08:02:37;;;;;;;;;;;;;;;22.29;32.32;97764.88;5059586;28;752;-79
2022/09/03 08:05:02;;;;;;;;;;;;;;;22.06;32.53;97765.19;5076209;28;840;-79
2022/09/03 08:07:28;;;;;;;;;;;;;;;22.05;32.49;97766.44;5076724;28;879;-79
2022/09/03 08:09:53;;;;;;;;;;;;;;;21.95;32.58;97784.59;5058883;28;1006;-79
2022/09/03 08:12:19;;;;;;;;;;;;;;;21.96;32.50;97772.00;5076429;28;1894;-80
2022/09/03 08:14:44;;;;;;;;;;;;;;;21.95;32.39;97773.25;5076736;28;820;-79
2022/09/03 08:17:11;;;;;;;;;;;;;;;21.99;31.97;97771.09;5076626;28;790;-79
2022/09/03 08:19:36;;;;;;;;;;;;;;;21.91;31.93;97759.19;5076774;28;892;-79
2022/09/03 08:22:02;;;;;;;;;;;;;;;21.89;32.14;97758.06;5076560;28;920;-79
2022/09/03 08:24:27;;;;;;;;;;;;;;;21.91;31.96;97761.22;5058748;28;1119;-79
2022/09/03 08:26:53;;;;;;;;;;;;;;;21.96;32.11;97766.34;5076338;28;913;-79
2022/09/03 08:29:19;;;;;;;;;;;;;;;21.80;32.16;97770.84;5076057;28;833;-79
2022/09/03 08:31:44;;;;;;;;;;;;;;;21.95;31.82;97773.25;5076624;28;936;-80
2022/09/03 08:34:11;;;;;;;;;;;;;;;21.99;31.60;97771.09;5076924;28;1926;-79
2022/09/03 08:36:37;;;;;;;;;;;;;;;21.89;31.51;97775.06;5076464;28;861;-79
2022/09/03 08:39:06;;;;;;;;;;;;;;;21.87;31.82;97769.06;5076303;28;885;-79
2022/09/03 08:41:32;;;;;;;;;;;;;;;21.88;31.42;97765.00;5059125;28;916;-80
2022/09/03 08:44:18;;;;;;;;;;;;;;;21.90;31.34;97762.47;5076426;28;875;-79
2022/09/03 08:46:50;;;;;;;;;;;;;;;21.74;31.83;97757.72;5058167;28;952;-79
2022/09/03 08:49:18;;;;;;;;;;;;;;;21.85;31.61;97753.31;5076297;28;864;-79
2022/09/03 08:51:43;;;;;;;;;;;;;;;21.75;31.82;97754.44;5058458;28;922;-79
2022/09/03 08:54:09;;;;;;;;;;;;;;;21.88;31.54;97750.81;5076349;28;1989;-79
2022/09/03 08:56:35;;;;;;;;;;;;;;;21.89;31.46;97761.69;5058721;28;860;-79
2022/09/03 08:59:01;;;;;;;;;;;;;;;22.24;32.30;97762.63;5058571;28;870;-79
2022/09/03 09:01:45;;;;;;;;;;;;;;;22.49;32.70;97773.13;5057226;28;1071;-79
2022/09/03 09:04:19;;;;;;;;;;;;;;;22.61;33.40;97768.69;5076047;28;847;-79
2022/09/03 09:06:48;;;;;;;;;;;;;;;22.20;33.41;97770.44;5075995;28;964;-79
2022/09/03 09:09:13;;;;;;;;;;;;;;;22.31;32.95;97779.38;5076424;28;902;-79
2022/09/03 09:11:41;;;;;;;;;;;;;;;22.19;32.83;97774.53;5076288;28;882;-80
2022/09/03 09:14:22;;;;;;;;;;;;;;;22.16;32.68;97777.47;5077083;28;1909;-79
2022/09/03 09:16:54;;;;;;;;;;;;;;;22.10;32.86;97769.53;5076522;28;846;-79
2022/09/03 09:19:23;;;;;;;;;;;;;;;22.08;32.68;97774.06;5058101;28;1285;-79
2022/09/03 09:21:53;;;;;;;;;;;;;;;21.96;33.12;97780.50;5058672;28;843;-79
2022/09/03 09:24:22;;;;;;;;;;;;;;;21.94;32.74;97794.34;5058278;28;912;-79
2022/09/03 09:26:48;;;;;;;;;;;;;;;22.05;32.80;97800.44;5058199;28;880;-79
2022/09/03 09:29:13;;;;;;;;;;;;;;;22.02;33.00;97798.50;5058256;28;941;-79
2022/09/03 09:31:39;;;;;;;;;;;;;;;22.01;32.98;97799.75;5058280;28;942;-79
2022/09/03 09:34:05;;;;;;;;;;;;;;;22.00;33.00;97806.69;5076047;28;1910;-79
2022/09/03 09:36:31;;;;;;;;;;;;;;;21.93;32.92;97809.75;5033670;28;1003;-79
2022/09/03 09:38:56;;;;;;;;;;;;;;;22.06;32.63;97816.19;5018268;28;1102;-80
2022/09/03 09:41:23;;;;;;;;;;;;;;;22.04;32.90;97821.53;5034657;28;1112;-79
2022/09/03 09:43:58;;;;;;;;;;;;;;;21.93;33.20;97838.06;5037119;28;954;-79
2022/09/03 09:46:24;;;;;;;;;;;;;;;22.04;32.50;97832.88;5021122;28;1121;-79
2022/09/03 09:48:53;;;;;;;;;;;;;;;21.99;32.64;97839.09;5021078;28;923;-79
2022/09/03 09:51:31;;;;;;;;;;;;;;;21.78;32.96;97835.66;5037343;28;885;-79
2022/09/03 09:54:00;;;;;;;;;;;;;;;22.01;32.74;97828.09;5020793;28;1977;-79
2022/09/03 09:56:25;;;;;;;;;;;;;;;22.06;32.35;97836.81;5036318;28;1217;-79
2022/09/03 09:59:03;;;;;;;;;;;;;;;21.99;32.43;97836.25;5036382;28;1246;-79
2022/09/03 10:01:30;;;;;;;;;;;;;;;21.99;32.50;97836.25;5033605;28;1266;-79
2022/09/03 10:03:59;;;;;;;;;;;;;;;21.74;32.87;97839.84;5036469;28;1265;-79
2022/09/03 10:09:13;;;;;;;;;;;;;;;21.89;32.55;97837.38;5042173;28;1466;-79
2022/09/03 10:11:40;;;;;;;;;;;;;;;21.93;32.51;97838.88;5046684;28;1408;-79
2022/09/03 10:14:08;;;;;;;;;;;;;;;21.79;32.59;97834.41;5072900;28;1910;-79
2022/09/03 10:16:35;;;;;;;;;;;;;;;21.79;32.36;97828.75;5066321;28;1638;-79
2022/09/03 10:19:03;;;;;;;;;;;;;;;21.82;32.42;97842.03;5041366;28;917;-79
2022/09/03 10:21:35;;;;;;;;;;;;;;;22.10;31.88;97839.56;5058772;28;953;-79
2022/09/03 10:24:19;;;;;;;;;;;;;;;21.89;32.41;97828.88;5041099;28;963;-79
2022/09/03 10:26:45;;;;;;;;;;;;;;;21.82;32.40;97847.69;5058880;28;867;-79
2022/09/03 10:29:11;;;;;;;;;;;;;;;21.95;32.26;97846.91;5039913;28;1007;-79
2022/09/03 10:31:55;;;;;;;;;;;;;;;21.89;32.05;97848.72;5040846;28;975;-79
2022/09/03 10:34:33;;;;;;;;;;;;;;;22.01;32.23;97850.75;5058520;28;1983;-79
2022/09/03 10:37:15;;;;;;;;;;;;;;;21.90;32.37;97853.13;5058292;28;795;-79
2022/09/03 10:39:48;;;;;;;;;;;;;;;21.88;32.29;97864.13;5040973;28;1040;-80
2022/09/03 10:42:13;;;;;;;;;;;;;;;21.83;32.54;97869.09;5058045;28;856;-79
2022/09/03 10:44:47;;;;;;;;;;;;;;;21.94;31.89;97865.16;5058377;28;926;-79
2022/09/03 10:47:13;;;;;;;;;;;;;;;22.08;31.93;97856.22;5040631;28;888;-79
2022/09/03 10:49:38;;;;;;;;;;;;;;;21.96;31.90;97859.81;5057992;28;927;-79
2022/09/03 10:52:04;;;;;;;;;;;;;;;21.93;31.98;97852.25;5057063;28;940;-79
2022/09/03 10:54:48;;;;;;;;;;;;;;;21.94;31.95;97865.16;5057760;28;1902;-79
2022/09/03 10:57:29;;;;;;;;;;;;;;;21.85;32.47;97854.47;5057986;28;881;-79
2022/09/03 10:59:54;;;;;;;;;;;;;;;22.03;32.26;97862.44;5040057;28;1212;-79
2022/09/03 11:02:25;;;;;;;;;;;;;;;21.93;32.32;97872.84;5058037;28;866;-79
2022/09/03 11:05:00;;;;;;;;;;;;;;;21.88;32.58;97875.47;5023466;28;991;-79
2022/09/03 11:07:29;;;;;;;;;;;;;;;21.64;33.04;97884.22;5057768;28;914;-79
2022/09/03 11:10:07;;;;;;;;;;;;;;;22.06;32.13;97881.38;5040433;28;882;-79
2022/09/03 11:12:34;;;;;;;;;;;;;;;21.84;32.57;97873.50;5039995;28;1967;-79
2022/09/03 11:15:01;;;;;;;;;;;;;;;21.98;32.05;97880.00;5057772;28;918;-79
2022/09/03 11:17:37;;;;;;;;;;;;;;;21.97;32.03;97872.75;5057447;28;979;-79
2022/09/03 11:20:05;;;;;;;;;;;;;;;21.96;31.94;97876.81;5039999;28;931;-79
2022/09/03 11:22:31;;;;;;;;;;;;;;;22.00;32.10;97883.19;5057439;28;960;-80
2022/09/03 11:24:57;;;;;;;;;;;;;;;21.98;31.90;97880.81;5057740;28;1026;-79
2022/09/03 11:27:26;;;;;;;;;;;;;;;21.98;32.20;97880.00;5039888;28;875;-79
2022/09/03 11:29:53;;;;;;;;;;;;;;;21.98;32.38;97888.50;5057808;28;992;-79
2022/09/03 11:32:28;;;;;;;;;;;;;;;22.02;32.35;97886.34;5039360;28;1975;-79
2022/09/03 11:34:53;;;;;;;;;;;;;;;21.88;32.35;97893.25;5057336;28;994;-79
2022/09/03 11:37:20;;;;;;;;;;;;;;;21.85;32.14;97894.13;5039415;28;949;-79
2022/09/03 11:40:02;;;;;;;;;;;;;;;22.00;31.97;97895.28;5039453;28;884;-79
2022/09/03 11:42:28;;;;;;;;;;;;;;;22.00;31.94;97889.63;5039550;28;914;-79
2022/09/03 11:44:58;;;;;;;;;;;;;;;21.91;32.55;97902.88;5056929;28;1009;-79
2022/09/03 11:47:24;;;;;;;;;;;;;;;21.63;32.88;97898.84;5039051;28;1120;-79
2022/09/03 11:49:50;;;;;;;;;;;;;;;21.98;32.13;97897.00;5053845;28;879;-79
2022/09/03 11:52:31;;;;;;;;;;;;;;;21.97;32.42;97906.75;5056847;28;1965;-79
2022/09/03 11:54:56;;;;;;;;;;;;;;;22.00;31.92;97905.84;5039710;28;950;-79
2022/09/03 11:57:28;;;;;;;;;;;;;;;22.03;31.99;97904.94;5057024;28;951;-79
2022/09/03 11:59:54;;;;;;;;;;;;;;;22.14;31.73;97902.63;5039138;28;1221;-79
2022/09/03 12:02:22;;;;;;;;;;;;;;;21.91;32.20;97902.88;5038792;28;1037;-79
2022/09/03 12:05:06;;;;;;;;;;;;;;;22.14;31.61;97911.13;5056762;28;973;-80
2022/09/03 12:07:41;;;;;;;;;;;;;;;21.94;31.72;97913.31;5057163;28;983;-79
2022/09/03 12:10:23;;;;;;;;;;;;;;;21.83;32.23;97914.41;5056990;28;889;-79
2022/09/03 12:12:53;;;;;;;;;;;;;;;21.88;31.74;97917.94;5022721;28;1969;-79
2022/09/03 12:15:21;;;;;;;;;;;;;;;21.79;32.21;97910.88;5038667;28;1047;-79
2022/09/03 12:20:59;;;;;;;;;;;;;;;21.83;31.97;97917.25;5015246;28;909;-79
2022/09/03 12:23:27;;;;;;;;;;;;;;;21.79;32.15;97913.72;5014710;28;882;-79
2022/09/03 12:25:53;;;;;;;;;;;;;;;21.94;32.03;97913.31;5014667;28;970;-79
2022/09/03 12:28:20;;;;;;;;;;;;;;;22.00;31.82;97911.50;5014604;28;982;-79
2022/09/03 12:30:46;;;;;;;;;;;;;;;21.88;32.07;97921.56;4998508;28;965;-80
2022/09/03 12:33:13;;;;;;;;;;;;;;;21.92;31.62;97924.31;5014678;28;1906;-79
2022/09/03 12:35:38;;;;;;;;;;;;;;;21.79;32.09;97919.38;4998490;28;1146;-79
2022/09/03 12:38:03;;;;;;;;;;;;;;;21.70;32.14;97915.59;5014519;28;1174;-80
2022/09/03 12:40:29;;;;;;;;;;;;;;;21.89;31.73;97917.50;5014628;28;976;-80
2022/09/03 12:42:54;;;;;;;;;;;;;;;21.78;31.86;97909.31;4998097;28;939;-79
2022/09/03 12:45:21;;;;;;;;;;;;;;;21.93;32.32;97914.56;5014363;28;869;-79
2022/09/03 12:47:46;;;;;;;;;;;;;;;22.40;33.34;97916.81;4998322;28;962;-79
2022/09/03 12:50:12;;;;;;;;;;;;;;;22.54;33.80;97922.03;5017484;28;975;-79
2022/09/03 12:52:41;;;;;;;;;;;;;;;22.84;33.70;97924.28;5051699;28;2048;-79
2022/09/03 12:55:10;;;;;;;;;;;;;;;22.69;34.29;97919.53;5037573;28;1099;-79
2022/09/03 12:57:37;;;;;;;;;;;;;;;22.08;34.76;97912.91;5053803;28;1000;-79
2022/09/03 13:00:07;;;;;;;;;;;;;;;22.14;34.26;97911.13;5037613;28;976;-79
2022/09/03 13:02:41;;;;;;;;;;;;;;;22.00;34.11;97903.78;5037568;28;953;-80
2022/09/03 13:05:09;;;;;;;;;;;;;;;22.20;33.84;97903.63;5037565;28;978;-79
2022/09/03 13:07:36;;;;;;;;;;;;;;;21.82;33.88;97907.16;5037512;28;1059;-79
2022/09/03 13:10:06;;;;;;;;;;;;;;;22.02;33.56;97914.66;5037248;28;995;-79
2022/09/03 13:12:33;;;;;;;;;;;;;;;22.00;33.28;97912.31;5037346;28;1902;-79
2022/09/03 13:15:04;;;;;;;;;;;;;;;21.91;33.55;97914.19;5039941;28;999;-79
2022/09/03 13:17:34;;;;;;;;;;;;;;;21.85;33.46;97928.13;5024730;28;1669;-79